sensor_id;sensor_type;location;lat;lon;timestamp;P1;durP1;ratioP1;P2;durP2;ratioP2
60416;SDS011;46263;44.726;10.396;2022-09-21T00:00:53;0.50;;;0.45;;
60416;SDS011;46263;44.726;10.396;2022-09-21T00:03:28;1.13;;;0.77;;
60416;SDS011;46263;44.726;10.396;2022-09-21T00:06:00;0.52;;;0.43;;
60416;SDS011;46263;44.726;10.396;2022-09-21T00:08:26;0.82;;;0.82;;
60416;SDS011;46263;44.726;10.396;2022-09-21T00:10:52;1.77;;;0.50;;
60416;SDS011;46263;44.726;10.396;2022-09-21T00:13:18;0.60;;;0.50;;
60416;SDS011;46263;44.726;10.396;2022-09-21T00:15:43;0.60;;;0.52;;
60416;SDS011;46263;44.726;10.396;2022-09-21T00:18:09;0.52;;;0.52;;
60416;SDS011;46263;44.726;10.396;2022-09-21T00:20:34;0.55;;;0.55;;
60416;SDS011;46263;44.726;10.396;2022-09-21T00:23:00;0.50;;;0.47;;
60416;SDS011;46263;44.726;10.396;2022-09-21T00:25:25;0.85;;;0.60;;
60416;SDS011;46263;44.726;10.396;2022-09-21T00:27:52;0.50;;;0.50;;
60416;SDS011;46263;44.726;10.396;2022-09-21T00:30:18;1.10;;;0.73;;
60416;SDS011;46263;44.726;10.396;2022-09-21T00:32:43;1.40;;;0.45;;
60416;SDS011;46263;44.726;10.396;2022-09-21T00:35:09;0.60;;;0.60;;
60416;SDS011;46263;44.726;10.396;2022-09-21T00:37:34;0.45;;;0.45;;
60416;SDS011;46263;44.726;10.396;2022-09-21T00:40:00;0.50;;;0.50;;
60416;SDS011;46263;44.726;10.396;2022-09-21T00:42:27;0.50;;;0.50;;
60416;SDS011;46263;44.726;10.396;2022-09-21T00:44:57;1.17;;;0.95;;
60416;SDS011;46263;44.726;10.396;2022-09-21T00:47:27;0.50;;;0.50;;
60416;SDS011;46263;44.726;10.396;2022-09-21T00:49:57;0.40;;;0.40;;
60416;SDS011;46263;44.726;10.396;2022-09-21T00:52:24;0.60;;;0.60;;
60416;SDS011;46263;44.726;10.396;2022-09-21T00:54:55;0.47;;;0.30;;
60416;SDS011;46263;44.726;10.396;2022-09-21T00:57:25;0.60;;;0.60;;
60416;SDS011;46263;44.726;10.396;2022-09-21T00:59:55;0.70;;;0.70;;
60416;SDS011;46263;44.726;10.396;2022-09-21T01:02:25;1.48;;;0.60;;
60416;SDS011;46263;44.726;10.396;2022-09-21T01:04:51;2.00;;;0.50;;
60416;SDS011;46263;44.726;10.396;2022-09-21T01:07:21;0.40;;;0.40;;
60416;SDS011;46263;44.726;10.396;2022-09-21T01:09:54;0.73;;;0.73;;
60416;SDS011;46263;44.726;10.396;2022-09-21T01:18:23;1.05;;;0.75;;
60416;SDS011;46263;44.726;10.396;2022-09-21T01:21:20;0.50;;;0.50;;
60416;SDS011;46263;44.726;10.396;2022-09-21T01:31:38;0.60;;;0.60;;
60416;SDS011;46263;44.726;10.396;2022-09-21T01:34:19;0.68;;;0.50;;
60416;SDS011;46263;44.726;10.396;2022-09-21T01:37:08;0.68;;;0.68;;
60416;SDS011;46263;44.726;10.396;2022-09-21T01:39:39;1.33;;;0.80;;
60416;SDS011;46263;44.726;10.396;2022-09-21T01:42:07;0.60;;;0.60;;
60416;SDS011;46263;44.726;10.396;2022-09-21T01:44:34;0.50;;;0.50;;
60416;SDS011;46263;44.726;10.396;2022-09-21T01:47:04;2.20;;;0.70;;
60416;SDS011;46263;44.726;10.396;2022-09-21T01:49:38;0.50;;;0.50;;
60416;SDS011;46263;44.726;10.396;2022-09-21T01:52:20;0.80;;;0.68;;
60416;SDS011;46263;44.726;10.396;2022-09-21T01:54:52;1.05;;;0.65;;
60416;SDS011;46263;44.726;10.396;2022-09-21T01:59:59;0.50;;;0.50;;
60416;SDS011;46263;44.726;10.396;2022-09-21T02:05:09;0.40;;;0.40;;
60416;SDS011;46263;44.726;10.396;2022-09-21T02:07:35;1.08;;;0.47;;
60416;SDS011;46263;44.726;10.396;2022-09-21T02:10:04;0.70;;;0.55;;
60416;SDS011;46263;44.726;10.396;2022-09-21T02:12:32;0.70;;;0.70;;
60416;SDS011;46263;44.726;10.396;2022-09-21T02:14:58;1.10;;;0.52;;
60416;SDS011;46263;44.726;10.396;2022-09-21T02:22:32;0.70;;;0.70;;
60416;SDS011;46263;44.726;10.396;2022-09-21T02:25:14;0.50;;;0.50;;
60416;SDS011;46263;44.726;10.396;2022-09-21T02:30:17;0.85;;;0.60;;
60416;SDS011;46263;44.726;10.396;2022-09-21T02:32:49;0.50;;;0.50;;
60416;SDS011;46263;44.726;10.396;2022-09-21T02:35:44;0.60;;;0.60;;
60416;SDS011;46263;44.726;10.396;2022-09-21T02:38:30;0.57;;;0.57;;
60416;SDS011;46263;44.726;10.396;2022-09-21T02:47:01;0.70;;;0.70;;
60416;SDS011;46263;44.726;10.396;2022-09-21T02:49:34;0.70;;;0.45;;
60416;SDS011;46263;44.726;10.396;2022-09-21T02:52:04;0.95;;;0.70;;
60416;SDS011;46263;44.726;10.396;2022-09-21T02:54:34;0.77;;;0.77;;
60416;SDS011;46263;44.726;10.396;2022-09-21T02:57:03;0.68;;;0.68;;
60416;SDS011;46263;44.726;10.396;2022-09-21T02:59:29;0.70;;;0.70;;
60416;SDS011;46263;44.726;10.396;2022-09-21T03:01:55;0.60;;;0.60;;
60416;SDS011;46263;44.726;10.396;2022-09-21T03:04:21;0.55;;;0.55;;
60416;SDS011;46263;44.726;10.396;2022-09-21T03:06:47;0.40;;;0.40;;
60416;SDS011;46263;44.726;10.396;2022-09-21T03:09:13;0.57;;;0.57;;
60416;SDS011;46263;44.726;10.396;2022-09-21T03:11:38;0.50;;;0.50;;
60416;SDS011;46263;44.726;10.396;2022-09-21T03:14:06;0.50;;;0.50;;
60416;SDS011;46263;44.726;10.396;2022-09-21T03:16:36;0.63;;;0.60;;
60416;SDS011;46263;44.726;10.396;2022-09-21T03:19:02;0.63;;;0.63;;
60416;SDS011;46263;44.726;10.396;2022-09-21T03:21:29;0.70;;;0.70;;
60416;SDS011;46263;44.726;10.396;2022-09-21T03:23:54;0.60;;;0.60;;
60416;SDS011;46263;44.726;10.396;2022-09-21T03:26:20;0.90;;;0.70;;
60416;SDS011;46263;44.726;10.396;2022-09-21T03:28:49;0.50;;;0.50;;
60416;SDS011;46263;44.726;10.396;2022-09-21T03:31:17;0.50;;;0.50;;
60416;SDS011;46263;44.726;10.396;2022-09-21T03:33:43;0.60;;;0.60;;
60416;SDS011;46263;44.726;10.396;2022-09-21T03:36:08;0.50;;;0.50;;
60416;SDS011;46263;44.726;10.396;2022-09-21T03:38:34;1.70;;;0.70;;
60416;SDS011;46263;44.726;10.396;2022-09-21T03:41:00;0.45;;;0.45;;
60416;SDS011;46263;44.726;10.396;2022-09-21T03:43:26;0.52;;;0.52;;
60416;SDS011;46263;44.726;10.396;2022-09-21T03:45:51;0.60;;;0.60;;
60416;SDS011;46263;44.726;10.396;2022-09-21T03:48:17;0.47;;;0.47;;
60416;SDS011;46263;44.726;10.396;2022-09-21T03:50:42;0.47;;;0.47;;
60416;SDS011;46263;44.726;10.396;2022-09-21T03:53:08;0.60;;;0.60;;
60416;SDS011;46263;44.726;10.396;2022-09-21T03:55:34;0.73;;;0.60;;
60416;SDS011;46263;44.726;10.396;2022-09-21T03:58:01;0.60;;;0.60;;
60416;SDS011;46263;44.726;10.396;2022-09-21T04:00:27;0.60;;;0.60;;
60416;SDS011;46263;44.726;10.396;2022-09-21T04:02:53;0.45;;;0.45;;
60416;SDS011;46263;44.726;10.396;2022-09-21T04:05:18;0.63;;;0.63;;
60416;SDS011;46263;44.726;10.396;2022-09-21T04:07:45;0.50;;;0.50;;
60416;SDS011;46263;44.726;10.396;2022-09-21T04:10:11;0.57;;;0.57;;
60416;SDS011;46263;44.726;10.396;2022-09-21T04:12:43;0.52;;;0.52;;
60416;SDS011;46263;44.726;10.396;2022-09-21T04:15:10;0.40;;;0.40;;
60416;SDS011;46263;44.726;10.396;2022-09-21T04:17:37;0.82;;;0.68;;
60416;SDS011;46263;44.726;10.396;2022-09-21T04:20:03;0.73;;;0.70;;
60416;SDS011;46263;44.726;10.396;2022-09-21T04:22:29;0.60;;;0.60;;
60416;SDS011;46263;44.726;10.396;2022-09-21T04:24:55;0.40;;;0.40;;
60416;SDS011;46263;44.726;10.396;2022-09-21T04:27:21;0.70;;;0.70;;
60416;SDS011;46263;44.726;10.396;2022-09-21T04:29:46;0.65;;;0.65;;
60416;SDS011;46263;44.726;10.396;2022-09-21T04:32:13;0.60;;;0.60;;
60416;SDS011;46263;44.726;10.396;2022-09-21T04:34:38;0.60;;;0.60;;
60416;SDS011;46263;44.726;10.396;2022-09-21T04:37:04;0.70;;;0.57;;
60416;SDS011;46263;44.726;10.396;2022-09-21T04:39:32;1.08;;;0.80;;
60416;SDS011;46263;44.726;10.396;2022-09-21T04:41:59;0.60;;;0.60;;
60416;SDS011;46263;44.726;10.396;2022-09-21T04:44:24;0.40;;;0.40;;
60416;SDS011;46263;44.726;10.396;2022-09-21T04:46:50;0.60;;;0.60;;
60416;SDS011;46263;44.726;10.396;2022-09-21T04:49:15;0.70;;;0.70;;
60416;SDS011;46263;44.726;10.396;2022-09-21T04:51:41;0.70;;;0.70;;
60416;SDS011;46263;44.726;10.396;2022-09-21T04:54:06;0.60;;;0.60;;
60416;SDS011;46263;44.726;10.396;2022-09-21T04:56:32;0.60;;;0.60;;
60416;SDS011;46263;44.726;10.396;2022-09-21T04:58:57;0.60;;;0.60;;
60416;SDS011;46263;44.726;10.396;2022-09-21T05:01:23;1.60;;;0.70;;
60416;SDS011;46263;44.726;10.396;2022-09-21T05:03:48;0.70;;;0.50;;
60416;SDS011;46263;44.726;10.396;2022-09-21T05:06:14;0.73;;;0.55;;
60416;SDS011;46263;44.726;10.396;2022-09-21T05:08:39;0.90;;;0.70;;
60416;SDS011;46263;44.726;10.396;2022-09-21T05:11:23;1.38;;;0.40;;
60416;SDS011;46263;44.726;10.396;2022-09-21T05:13:49;0.60;;;0.60;;
60416;SDS011;46263;44.726;10.396;2022-09-21T05:16:15;0.35;;;0.35;;
60416;SDS011;46263;44.726;10.396;2022-09-21T05:18:41;0.52;;;0.50;;
60416;SDS011;46263;44.726;10.396;2022-09-21T05:21:08;0.60;;;0.52;;
60416;SDS011;46263;44.726;10.396;2022-09-21T05:23:35;0.50;;;0.50;;
60416;SDS011;46263;44.726;10.396;2022-09-21T05:26:00;1.08;;;0.95;;
60416;SDS011;46263;44.726;10.396;2022-09-21T05:28:26;0.75;;;0.70;;
60416;SDS011;46263;44.726;10.396;2022-09-21T05:33:47;1.05;;;0.57;;
60416;SDS011;46263;44.726;10.396;2022-09-21T05:39:21;0.85;;;0.60;;
60416;SDS011;46263;44.726;10.396;2022-09-21T05:41:47;0.60;;;0.60;;
60416;SDS011;46263;44.726;10.396;2022-09-21T05:44:13;1.17;;;0.52;;
60416;SDS011;46263;44.726;10.396;2022-09-21T05:46:53;0.80;;;0.80;;
60416;SDS011;46263;44.726;10.396;2022-09-21T05:57:43;0.65;;;0.60;;
60416;SDS011;46263;44.726;10.396;2022-09-21T06:00:16;0.50;;;0.50;;
60416;SDS011;46263;44.726;10.396;2022-09-21T06:05:18;0.77;;;0.77;;
60416;SDS011;46263;44.726;10.396;2022-09-21T06:07:44;0.95;;;0.60;;
60416;SDS011;46263;44.726;10.396;2022-09-21T06:10:10;0.57;;;0.57;;
60416;SDS011;46263;44.726;10.396;2022-09-21T06:12:37;0.82;;;0.60;;
60416;SDS011;46263;44.726;10.396;2022-09-21T06:15:04;0.70;;;0.70;;
60416;SDS011;46263;44.726;10.396;2022-09-21T06:17:31;0.77;;;0.43;;
60416;SDS011;46263;44.726;10.396;2022-09-21T06:19:57;0.57;;;0.40;;
60416;SDS011;46263;44.726;10.396;2022-09-21T06:22:22;0.73;;;0.73;;
60416;SDS011;46263;44.726;10.396;2022-09-21T06:24:48;0.70;;;0.70;;
60416;SDS011;46263;44.726;10.396;2022-09-21T06:27:13;0.77;;;0.60;;
60416;SDS011;46263;44.726;10.396;2022-09-21T06:29:38;0.50;;;0.50;;
60416;SDS011;46263;44.726;10.396;2022-09-21T06:32:04;0.60;;;0.60;;
60416;SDS011;46263;44.726;10.396;2022-09-21T06:34:29;0.80;;;0.60;;
60416;SDS011;46263;44.726;10.396;2022-09-21T06:36:55;0.95;;;0.90;;
60416;SDS011;46263;44.726;10.396;2022-09-21T06:39:21;1.00;;;0.60;;
60416;SDS011;46263;44.726;10.396;2022-09-21T06:41:47;0.50;;;0.50;;
60416;SDS011;46263;44.726;10.396;2022-09-21T06:44:12;0.73;;;0.73;;
60416;SDS011;46263;44.726;10.396;2022-09-21T06:46:38;0.70;;;0.70;;
60416;SDS011;46263;44.726;10.396;2022-09-21T06:49:03;0.60;;;0.60;;
60416;SDS011;46263;44.726;10.396;2022-09-21T06:51:29;0.57;;;0.57;;
60416;SDS011;46263;44.726;10.396;2022-09-21T06:53:57;0.40;;;0.40;;
60416;SDS011;46263;44.726;10.396;2022-09-21T06:56:23;0.77;;;0.75;;
60416;SDS011;46263;44.726;10.396;2022-09-21T06:58:49;0.68;;;0.60;;
60416;SDS011;46263;44.726;10.396;2022-09-21T07:01:15;0.77;;;0.70;;
60416;SDS011;46263;44.726;10.396;2022-09-21T07:03:41;1.05;;;0.60;;
60416;SDS011;46263;44.726;10.396;2022-09-21T07:06:08;1.10;;;1.00;;
60416;SDS011;46263;44.726;10.396;2022-09-21T07:08:39;0.47;;;0.47;;
60416;SDS011;46263;44.726;10.396;2022-09-21T07:11:06;0.80;;;0.52;;
60416;SDS011;46263;44.726;10.396;2022-09-21T07:13:32;1.20;;;0.80;;
60416;SDS011;46263;44.726;10.396;2022-09-21T07:15:57;0.70;;;0.70;;
60416;SDS011;46263;44.726;10.396;2022-09-21T07:18:26;0.70;;;0.70;;
60416;SDS011;46263;44.726;10.396;2022-09-21T07:20:52;0.70;;;0.70;;
60416;SDS011;46263;44.726;10.396;2022-09-21T07:23:18;0.63;;;0.60;;
60416;SDS011;46263;44.726;10.396;2022-09-21T07:25:44;1.10;;;0.70;;
60416;SDS011;46263;44.726;10.396;2022-09-21T07:28:13;0.50;;;0.50;;
60416;SDS011;46263;44.726;10.396;2022-09-21T07:30:39;1.13;;;0.47;;
60416;SDS011;46263;44.726;10.396;2022-09-21T07:33:05;0.38;;;0.38;;
60416;SDS011;46263;44.726;10.396;2022-09-21T07:35:32;0.60;;;0.60;;
60416;SDS011;46263;44.726;10.396;2022-09-21T07:37:58;0.60;;;0.57;;
60416;SDS011;46263;44.726;10.396;2022-09-21T07:40:25;0.63;;;0.63;;
60416;SDS011;46263;44.726;10.396;2022-09-21T07:42:50;2.05;;;0.70;;
60416;SDS011;46263;44.726;10.396;2022-09-21T07:45:16;1.27;;;0.55;;
60416;SDS011;46263;44.726;10.396;2022-09-21T07:47:42;1.58;;;0.63;;
60416;SDS011;46263;44.726;10.396;2022-09-21T07:50:07;0.70;;;0.70;;
60416;SDS011;46263;44.726;10.396;2022-09-21T07:52:33;0.50;;;0.50;;
60416;SDS011;46263;44.726;10.396;2022-09-21T07:54:59;0.80;;;0.70;;
60416;SDS011;46263;44.726;10.396;2022-09-21T07:57:24;2.92;;;0.60;;
60416;SDS011;46263;44.726;10.396;2022-09-21T08:00:08;0.55;;;0.55;;
60416;SDS011;46263;44.726;10.396;2022-09-21T08:02:34;0.65;;;0.65;;
60416;SDS011;46263;44.726;10.396;2022-09-21T08:05:00;1.00;;;0.80;;
60416;SDS011;46263;44.726;10.396;2022-09-21T08:07:25;0.60;;;0.60;;
60416;SDS011;46263;44.726;10.396;2022-09-21T08:09:52;0.90;;;0.50;;
60416;SDS011;46263;44.726;10.396;2022-09-21T08:12:18;2.55;;;1.02;;
60416;SDS011;46263;44.726;10.396;2022-09-21T08:14:45;0.43;;;0.43;;
60416;SDS011;46263;44.726;10.396;2022-09-21T08:17:11;0.40;;;0.40;;
60416;SDS011;46263;44.726;10.396;2022-09-21T08:19:37;2.20;;;0.60;;
60416;SDS011;46263;44.726;10.396;2022-09-21T08:22:03;0.68;;;0.50;;
60416;SDS011;46263;44.726;10.396;2022-09-21T08:24:28;0.68;;;0.60;;
60416;SDS011;46263;44.726;10.396;2022-09-21T08:26:55;0.40;;;0.40;;
60416;SDS011;46263;44.726;10.396;2022-09-21T08:29:20;1.02;;;0.60;;
60416;SDS011;46263;44.726;10.396;2022-09-21T08:31:46;0.93;;;0.60;;
60416;SDS011;46263;44.726;10.396;2022-09-21T08:34:11;0.57;;;0.50;;
60416;SDS011;46263;44.726;10.396;2022-09-21T08:36:37;0.47;;;0.47;;
60416;SDS011;46263;44.726;10.396;2022-09-21T08:39:05;1.42;;;0.80;;
60416;SDS011;46263;44.726;10.396;2022-09-21T08:41:44;0.70;;;0.70;;
60416;SDS011;46263;44.726;10.396;2022-09-21T08:44:26;0.70;;;0.70;;
60416;SDS011;46263;44.726;10.396;2022-09-21T08:47:02;0.70;;;0.70;;
60416;SDS011;46263;44.726;10.396;2022-09-21T08:49:32;0.50;;;0.50;;
60416;SDS011;46263;44.726;10.396;2022-09-21T08:52:08;0.40;;;0.40;;
60416;SDS011;46263;44.726;10.396;2022-09-21T08:54:43;2.92;;;0.65;;
60416;SDS011;46263;44.726;10.396;2022-09-21T08:57:16;0.45;;;0.45;;
60416;SDS011;46263;44.726;10.396;2022-09-21T08:59:43;0.40;;;0.40;;
60416;SDS011;46263;44.726;10.396;2022-09-21T09:13:07;0.73;;;0.45;;
60416;SDS011;46263;44.726;10.396;2022-09-21T09:15:40;0.40;;;0.40;;
60416;SDS011;46263;44.726;10.396;2022-09-21T09:18:44;0.55;;;0.55;;
60416;SDS011;46263;44.726;10.396;2022-09-21T09:21:26;0.60;;;0.50;;
60416;SDS011;46263;44.726;10.396;2022-09-21T09:32:09;0.75;;;0.70;;
60416;SDS011;46263;44.726;10.396;2022-09-21T09:34:39;0.43;;;0.43;;
60416;SDS011;46263;44.726;10.396;2022-09-21T09:37:27;0.50;;;0.50;;
60416;SDS011;46263;44.726;10.396;2022-09-21T09:39:58;0.40;;;0.40;;
60416;SDS011;46263;44.726;10.396;2022-09-21T09:42:42;0.70;;;0.70;;
60416;SDS011;46263;44.726;10.396;2022-09-21T09:51:03;0.60;;;0.60;;
60416;SDS011;46263;44.726;10.396;2022-09-21T09:53:29;2.60;;;0.55;;
60416;SDS011;46263;44.726;10.396;2022-09-21T09:55:56;0.50;;;0.50;;
60416;SDS011;46263;44.726;10.396;2022-09-21T09:58:23;0.60;;;0.60;;
60416;SDS011;46263;44.726;10.396;2022-09-21T10:00:58;0.40;;;0.40;;
60416;SDS011;46263;44.726;10.396;2022-09-21T10:03:24;0.43;;;0.43;;
60416;SDS011;46263;44.726;10.396;2022-09-21T10:05:51;1.08;;;0.60;;
60416;SDS011;46263;44.726;10.396;2022-09-21T10:11:03;0.50;;;0.50;;
60416;SDS011;46263;44.726;10.396;2022-09-21T10:13:33;0.70;;;0.60;;
60416;SDS011;46263;44.726;10.396;2022-09-21T10:21:22;0.50;;;0.50;;
60416;SDS011;46263;44.726;10.396;2022-09-21T10:23:59;0.70;;;0.50;;
60416;SDS011;46263;44.726;10.396;2022-09-21T10:26:33;0.82;;;0.50;;
60416;SDS011;46263;44.726;10.396;2022-09-21T10:29:15;0.25;;;0.25;;
60416;SDS011;46263;44.726;10.396;2022-09-21T10:32:04;0.50;;;0.50;;
60416;SDS011;46263;44.726;10.396;2022-09-21T10:35:01;1.58;;;0.60;;
60416;SDS011;46263;44.726;10.396;2022-09-21T10:37:39;0.47;;;0.47;;
60416;SDS011;46263;44.726;10.396;2022-09-21T10:42:43;0.45;;;0.40;;
60416;SDS011;46263;44.726;10.396;2022-09-21T10:47:44;0.45;;;0.40;;
60416;SDS011;46263;44.726;10.396;2022-09-21T10:52:46;2.55;;;0.40;;
60416;SDS011;46263;44.726;10.396;2022-09-21T10:55:17;0.45;;;0.40;;
60416;SDS011;46263;44.726;10.396;2022-09-21T10:57:46;0.50;;;0.50;;
60416;SDS011;46263;44.726;10.396;2022-09-21T11:02:59;0.65;;;0.50;;
60416;SDS011;46263;44.726;10.396;2022-09-21T11:05:31;0.40;;;0.40;;
60416;SDS011;46263;44.726;10.396;2022-09-21T11:08:14;0.40;;;0.40;;
60416;SDS011;46263;44.726;10.396;2022-09-21T11:13:36;1.90;;;0.45;;
60416;SDS011;46263;44.726;10.396;2022-09-21T11:16:06;0.40;;;0.40;;
60416;SDS011;46263;44.726;10.396;2022-09-21T11:18:45;1.98;;;0.40;;
60416;SDS011;46263;44.726;10.396;2022-09-21T11:27:29;1.05;;;0.50;;
60416;SDS011;46263;44.726;10.396;2022-09-21T11:30:09;0.65;;;0.50;;
60416;SDS011;46263;44.726;10.396;2022-09-21T11:35:22;0.38;;;0.38;;
60416;SDS011;46263;44.726;10.396;2022-09-21T11:54:53;0.35;;;0.35;;
60416;SDS011;46263;44.726;10.396;2022-09-21T11:57:32;0.50;;;0.50;;
60416;SDS011;46263;44.726;10.396;2022-09-21T12:00:16;0.63;;;0.50;;
60416;SDS011;46263;44.726;10.396;2022-09-21T12:02:51;0.40;;;0.40;;
60416;SDS011;46263;44.726;10.396;2022-09-21T12:19:40;0.50;;;0.50;;
60416;SDS011;46263;44.726;10.396;2022-09-21T12:22:31;1.17;;;0.50;;
60416;SDS011;46263;44.726;10.396;2022-09-21T12:25:04;0.30;;;0.30;;
60416;SDS011;46263;44.726;10.396;2022-09-21T12:30:16;0.40;;;0.40;;
60416;SDS011;46263;44.726;10.396;2022-09-21T12:38:08;0.40;;;0.40;;
60416;SDS011;46263;44.726;10.396;2022-09-21T12:48:45;0.50;;;0.50;;
60416;SDS011;46263;44.726;10.396;2022-09-21T12:53:37;0.50;;;0.50;;
60416;SDS011;46263;44.726;10.396;2022-09-21T12:56:25;0.73;;;0.57;;
60416;SDS011;46263;44.726;10.396;2022-09-21T12:59:12;0.75;;;0.40;;
60416;SDS011;46263;44.726;10.396;2022-09-21T13:02:02;0.50;;;0.50;;
60416;SDS011;46263;44.726;10.396;2022-09-21T13:04:56;0.40;;;0.40;;
60416;SDS011;46263;44.726;10.396;2022-09-21T13:12:56;0.55;;;0.55;;
60416;SDS011;46263;44.726;10.396;2022-09-21T13:15:26;0.40;;;0.40;;
60416;SDS011;46263;44.726;10.396;2022-09-21T13:20:36;0.60;;;0.60;;
60416;SDS011;46263;44.726;10.396;2022-09-21T13:23:04;0.40;;;0.40;;
60416;SDS011;46263;44.726;10.396;2022-09-21T13:25:30;0.52;;;0.50;;
60416;SDS011;46263;44.726;10.396;2022-09-21T13:30:37;0.40;;;0.40;;
60416;SDS011;46263;44.726;10.396;2022-09-21T13:38:25;0.30;;;0.30;;
60416;SDS011;46263;44.726;10.396;2022-09-21T13:40:55;0.93;;;0.50;;
60416;SDS011;46263;44.726;10.396;2022-09-21T13:52:23;0.35;;;0.35;;
60416;SDS011;46263;44.726;10.396;2022-09-21T14:02:36;0.52;;;0.52;;
60416;SDS011;46263;44.726;10.396;2022-09-21T14:07:33;0.93;;;0.35;;
60416;SDS011;46263;44.726;10.396;2022-09-21T14:10:03;0.40;;;0.40;;
60416;SDS011;46263;44.726;10.396;2022-09-21T14:12:41;0.35;;;0.35;;
60416;SDS011;46263;44.726;10.396;2022-09-21T14:17:40;1.30;;;0.90;;
60416;SDS011;46263;44.726;10.396;2022-09-21T14:28:16;1.73;;;0.30;;
60416;SDS011;46263;44.726;10.396;2022-09-21T14:30:54;0.40;;;0.40;;
60416;SDS011;46263;44.726;10.396;2022-09-21T14:33:25;0.40;;;0.40;;
60416;SDS011;46263;44.726;10.396;2022-09-21T14:35:54;0.40;;;0.32;;
60416;SDS011;46263;44.726;10.396;2022-09-21T14:40:52;0.30;;;0.30;;
60416;SDS011;46263;44.726;10.396;2022-09-21T14:43:26;0.47;;;0.47;;
60416;SDS011;46263;44.726;10.396;2022-09-21T14:54:55;0.28;;;0.28;;
60416;SDS011;46263;44.726;10.396;2022-09-21T15:02:45;1.85;;;0.77;;
60416;SDS011;46263;44.726;10.396;2022-09-21T15:13:46;0.80;;;0.50;;
60416;SDS011;46263;44.726;10.396;2022-09-21T15:21:53;1.20;;;0.50;;
60416;SDS011;46263;44.726;10.396;2022-09-21T15:24:23;0.30;;;0.30;;
60416;SDS011;46263;44.726;10.396;2022-09-21T15:26:51;0.40;;;0.40;;
60416;SDS011;46263;44.726;10.396;2022-09-21T15:29:26;0.47;;;0.43;;
60416;SDS011;46263;44.726;10.396;2022-09-21T15:31:55;0.40;;;0.40;;
60416;SDS011;46263;44.726;10.396;2022-09-21T15:34:21;0.65;;;0.40;;
60416;SDS011;46263;44.726;10.396;2022-09-21T15:36:48;0.32;;;0.30;;
60416;SDS011;46263;44.726;10.396;2022-09-21T15:39:20;0.77;;;0.43;;
60416;SDS011;46263;44.726;10.396;2022-09-21T15:41:47;0.60;;;0.60;;
60416;SDS011;46263;44.726;10.396;2022-09-21T15:46:42;0.77;;;0.50;;
60416;SDS011;46263;44.726;10.396;2022-09-21T15:49:12;0.35;;;0.35;;
60416;SDS011;46263;44.726;10.396;2022-09-21T15:51:40;0.40;;;0.40;;
60416;SDS011;46263;44.726;10.396;2022-09-21T15:56:46;0.30;;;0.30;;
60416;SDS011;46263;44.726;10.396;2022-09-21T15:59:16;0.30;;;0.30;;
60416;SDS011;46263;44.726;10.396;2022-09-21T16:01:46;0.60;;;0.60;;
60416;SDS011;46263;44.726;10.396;2022-09-21T16:04:15;0.35;;;0.35;;
60416;SDS011;46263;44.726;10.396;2022-09-21T16:06:44;0.40;;;0.40;;
60416;SDS011;46263;44.726;10.396;2022-09-21T16:11:50;0.32;;;0.32;;
60416;SDS011;46263;44.726;10.396;2022-09-21T16:14:17;0.40;;;0.40;;
60416;SDS011;46263;44.726;10.396;2022-09-21T16:25:12;0.63;;;0.52;;
60416;SDS011;46263;44.726;10.396;2022-09-21T16:27:50;1.23;;;0.30;;
60416;SDS011;46263;44.726;10.396;2022-09-21T16:38:43;0.47;;;0.30;;
60416;SDS011;46263;44.726;10.396;2022-09-21T16:41:11;0.30;;;0.30;;
60416;SDS011;46263;44.726;10.396;2022-09-21T16:43:45;0.60;;;0.35;;
60416;SDS011;46263;44.726;10.396;2022-09-21T16:46:10;0.40;;;0.40;;
60416;SDS011;46263;44.726;10.396;2022-09-21T16:48:37;0.20;;;0.20;;
60416;SDS011;46263;44.726;10.396;2022-09-21T16:51:04;0.55;;;0.40;;
60416;SDS011;46263;44.726;10.396;2022-09-21T16:53:35;0.40;;;0.40;;
60416;SDS011;46263;44.726;10.396;2022-09-21T16:56:01;0.50;;;0.43;;
60416;SDS011;46263;44.726;10.396;2022-09-21T16:58:27;0.30;;;0.30;;
60416;SDS011;46263;44.726;10.396;2022-09-21T17:00:52;0.30;;;0.30;;
60416;SDS011;46263;44.726;10.396;2022-09-21T17:03:18;0.40;;;0.40;;
60416;SDS011;46263;44.726;10.396;2022-09-21T17:05:44;1.27;;;0.30;;
60416;SDS011;46263;44.726;10.396;2022-09-21T17:08:10;0.60;;;0.30;;
60416;SDS011;46263;44.726;10.396;2022-09-21T17:10:37;0.40;;;0.32;;
60416;SDS011;46263;44.726;10.396;2022-09-21T17:13:05;0.30;;;0.30;;
60416;SDS011;46263;44.726;10.396;2022-09-21T17:15:31;0.20;;;0.20;;
60416;SDS011;46263;44.726;10.396;2022-09-21T17:17:58;0.30;;;0.30;;
60416;SDS011;46263;44.726;10.396;2022-09-21T17:22:57;1.55;;;0.38;;
60416;SDS011;46263;44.726;10.396;2022-09-21T17:25:23;0.40;;;0.40;;
60416;SDS011;46263;44.726;10.396;2022-09-21T17:27:48;0.30;;;0.30;;
60416;SDS011;46263;44.726;10.396;2022-09-21T17:30:14;0.30;;;0.30;;
60416;SDS011;46263;44.726;10.396;2022-09-21T17:32:42;0.40;;;0.30;;
60416;SDS011;46263;44.726;10.396;2022-09-21T17:35:53;0.25;;;0.20;;
60416;SDS011;46263;44.726;10.396;2022-09-21T17:37:57;0.20;;;0.20;;
60416;SDS011;46263;44.726;10.396;2022-09-21T17:40:24;0.50;;;0.47;;
60416;SDS011;46263;44.726;10.396;2022-09-21T17:42:51;0.40;;;0.40;;
60416;SDS011;46263;44.726;10.396;2022-09-21T17:45:31;0.30;;;0.30;;
60416;SDS011;46263;44.726;10.396;2022-09-21T17:48:03;0.47;;;0.47;;
60416;SDS011;46263;44.726;10.396;2022-09-21T17:50:29;2.30;;;0.40;;
60416;SDS011;46263;44.726;10.396;2022-09-21T17:52:56;0.75;;;0.60;;
60416;SDS011;46263;44.726;10.396;2022-09-21T17:55:45;2.28;;;1.05;;
60416;SDS011;46263;44.726;10.396;2022-09-21T18:03:26;1.63;;;1.08;;
60416;SDS011;46263;44.726;10.396;2022-09-21T18:05:54;1.02;;;0.82;;
60416;SDS011;46263;44.726;10.396;2022-09-21T18:08:27;1.35;;;1.23;;
60416;SDS011;46263;44.726;10.396;2022-09-21T18:18:55;1.92;;;1.35;;
60416;SDS011;46263;44.726;10.396;2022-09-21T18:26:46;3.03;;;1.40;;
60416;SDS011;46263;44.726;10.396;2022-09-21T18:29:26;1.77;;;1.20;;
60416;SDS011;46263;44.726;10.396;2022-09-21T18:42:42;3.03;;;2.00;;
60416;SDS011;46263;44.726;10.396;2022-09-21T18:45:32;3.78;;;1.35;;
60416;SDS011;46263;44.726;10.396;2022-09-21T18:48:18;1.92;;;1.73;;
60416;SDS011;46263;44.726;10.396;2022-09-21T18:53:54;2.92;;;1.40;;
60416;SDS011;46263;44.726;10.396;2022-09-21T18:56:21;2.72;;;1.90;;
60416;SDS011;46263;44.726;10.396;2022-09-21T18:58:48;2.65;;;1.60;;
60416;SDS011;46263;44.726;10.396;2022-09-21T19:01:14;3.53;;;1.73;;
60416;SDS011;46263;44.726;10.396;2022-09-21T19:03:41;2.35;;;1.63;;
60416;SDS011;46263;44.726;10.396;2022-09-21T19:06:12;1.50;;;1.30;;
60416;SDS011;46263;44.726;10.396;2022-09-21T19:11:37;1.77;;;1.50;;
60416;SDS011;46263;44.726;10.396;2022-09-21T19:17:00;1.75;;;1.60;;
60416;SDS011;46263;44.726;10.396;2022-09-21T19:27:37;2.33;;;1.60;;
60416;SDS011;46263;44.726;10.396;2022-09-21T19:30:08;1.30;;;1.10;;
60416;SDS011;46263;44.726;10.396;2022-09-21T19:32:43;1.42;;;1.10;;
60416;SDS011;46263;44.726;10.396;2022-09-21T19:37:45;1.30;;;1.20;;
60416;SDS011;46263;44.726;10.396;2022-09-21T19:40:14;2.78;;;1.10;;
60416;SDS011;46263;44.726;10.396;2022-09-21T19:45:31;2.88;;;1.17;;
60416;SDS011;46263;44.726;10.396;2022-09-21T19:48:10;1.33;;;1.20;;
60416;SDS011;46263;44.726;10.396;2022-09-21T19:50:41;1.67;;;1.30;;
60416;SDS011;46263;44.726;10.396;2022-09-21T19:53:11;1.10;;;0.82;;
60416;SDS011;46263;44.726;10.396;2022-09-21T19:55:56;1.42;;;1.10;;
60416;SDS011;46263;44.726;10.396;2022-09-21T19:58:43;2.22;;;1.10;;